Time;durP1;ratioP1;P1;durP2;ratioP2;P2;SDS_P1;SDS_P2;PMS_P1;PMS_P2;Temp;Humidity;BMP_temperature;BMP_pressure;BME280_temperature;BME280_humidity;BME280_pressure;Samples;Min_cycle;Max_cycle;Signal;HPM_P1;HPM_P2
2023/09/07 00:00:35;;;;;;;0.00;0.00;;;;;;;28.49;49.71;102081.22;5092001;28;20044;-67
2023/09/07 00:03:00;;;;;;;0.00;0.00;;;;;;;28.31;49.72;102082.22;5074950;28;20528;-68
2023/09/07 00:05:26;;;;;;;0.00;0.00;;;;;;;28.51;48.86;102084.50;5071644;28;20024;-67
2023/09/07 00:07:51;;;;;;;0.00;0.00;;;;;;;28.24;49.89;102082.69;5087037;28;20036;-68
2023/09/07 00:10:17;;;;;;;0.00;0.00;;;;;;;28.30;49.74;102077.84;5071652;28;20527;-67
2023/09/07 00:12:43;;;;;;;0.00;0.00;;;;;;;28.37;49.23;102080.97;5071530;28;20052;-67
2023/09/07 00:15:10;;;;;;;0.00;0.00;;;;;;;28.17;49.87;102076.75;5053623;28;20048;-67
2023/09/07 00:17:36;;;;;;;0.00;0.00;;;;;;;28.07;50.09;102073.44;5071516;28;20032;-67
2023/09/07 00:20:09;;;;;;;0.00;0.00;;;;;;;28.26;50.54;102076.84;5071916;28;20330;-67
2023/09/07 00:22:34;;;;;;;0.00;0.00;;;;;;;28.30;49.49;102077.84;5053436;28;20052;-67
2023/09/07 00:25:00;;;;;;;0.00;0.00;;;;;;;28.18;49.65;102069.28;5071499;28;20070;-67
2023/09/07 00:27:25;;;;;;;0.00;0.00;;;;;;;28.08;50.07;102075.88;5071115;28;20036;-68
2023/09/07 00:29:50;;;;;;;0.00;0.00;;;;;;;28.01;50.40;102080.22;5071247;28;20032;-67
2023/09/07 00:32:16;;;;;;;0.00;0.00;;;;;;;28.04;49.82;102077.63;5071197;28;20020;-67
2023/09/07 00:34:41;;;;;;;0.00;0.00;;;;;;;27.89;50.21;102080.72;5053429;28;20040;-67
2023/09/07 00:37:07;;;;;;;0.00;0.00;;;;;;;27.70;50.80;102080.88;5071247;28;20397;-67
2023/09/07 00:39:32;;;;;;;0.00;0.00;;;;;;;27.77;50.96;102081.25;5071365;28;20040;-68
2023/09/07 00:41:57;;;;;;;0.00;0.00;;;;;;;27.91;50.45;102083.97;5070978;28;20540;-68
2023/09/07 00:44:23;;;;;;;0.00;0.00;;;;;;;27.65;51.28;102081.00;5079765;28;20031;-68
2023/09/07 00:46:48;;;;;;;0.00;0.00;;;;;;;27.73;50.83;102082.19;5091753;28;20479;-68
2023/09/07 00:49:14;;;;;;;0.00;0.00;;;;;;;27.69;50.40;102078.41;5072067;28;20089;-68
2023/09/07 00:51:40;;;;;;;0.00;0.00;;;;;;;27.73;50.75;102083.00;5091024;28;20115;-68
2023/09/07 00:54:05;;;;;;;0.00;0.00;;;;;;;27.56;51.50;102085.59;5090978;28;20048;-67
2023/09/07 00:56:31;;;;;;;0.00;0.00;;;;;;;27.63;50.79;102082.41;5090879;28;20027;-67
2023/09/07 00:58:59;;;;;;;0.00;0.00;;;;;;;27.54;50.62;102075.97;5075083;28;20036;-68
2023/09/07 01:01:26;;;;;;;0.00;0.00;;;;;;;27.27;51.80;102068.50;5070467;28;20067;-67
2023/09/07 01:03:51;;;;;;;0.00;0.00;;;;;;;27.44;51.39;102070.69;5070458;28;20041;-68
2023/09/07 01:06:32;;;;;;;0.00;0.00;;;;;;;27.45;51.07;102067.59;5070611;28;20538;-68
2023/09/07 01:09:03;;;;;;;0.00;0.00;;;;;;;27.53;50.48;102072.41;5070657;28;20037;-67
2023/09/07 01:11:36;;;;;;;0.00;0.00;;;;;;;27.43;50.77;102069.88;5070490;28;20095;-67
2023/09/07 01:14:03;;;;;;;0.00;0.00;;;;;;;27.39;51.02;102059.72;5070667;28;20021;-68
2023/09/07 01:16:29;;;;;;;0.00;0.00;;;;;;;27.36;50.99;102068.66;5070578;28;20052;-68
2023/09/07 01:18:55;;;;;;;0.00;0.00;;;;;;;27.33;51.56;102060.97;5070402;28;20033;-68
2023/09/07 01:21:22;;;;;;;0.00;0.00;;;;;;;27.35;51.60;102059.53;5070288;28;20033;-68
2023/09/07 01:23:48;;;;;;;0.00;0.00;;;;;;;27.31;50.67;102069.53;5070571;28;20041;-68
2023/09/07 01:26:14;;;;;;;0.00;0.00;;;;;;;27.28;50.94;102059.09;5070675;28;20029;-67
2023/09/07 01:28:39;;;;;;;0.00;0.00;;;;;;;27.16;51.99;102057.97;5069967;28;20155;-67
2023/09/07 01:31:06;;;;;;;0.00;0.00;;;;;;;27.31;51.03;102054.91;5070064;28;20037;-68
2023/09/07 01:33:31;;;;;;;0.00;0.00;;;;;;;27.16;51.35;102057.97;5069780;28;20104;-68
2023/09/07 01:35:57;;;;;;;0.00;0.00;;;;;;;26.94;51.44;102051.22;5070078;28;20036;-68
2023/09/07 01:38:22;;;;;;;0.00;0.00;;;;;;;27.14;51.43;102063.00;5070167;28;20021;-68
2023/09/07 01:40:48;;;;;;;0.00;0.00;;;;;;;27.04;51.60;102058.50;5070576;28;20035;-68
2023/09/07 01:43:13;;;;;;;0.00;0.00;;;;;;;27.09;51.13;102060.31;5069810;28;20412;-67
2023/09/07 01:45:39;;;;;;;0.00;0.00;;;;;;;27.11;51.07;102047.84;5088884;28;20055;-67
2023/09/07 01:48:09;;;;;;;0.00;0.00;;;;;;;26.97;52.09;102057.25;5090262;28;20048;-68
2023/09/07 01:50:34;;;;;;;0.00;0.00;;;;;;;26.86;51.62;102054.69;5089652;28;20039;-68
2023/09/07 01:52:59;;;;;;;0.00;0.00;;;;;;;26.91;51.62;102054.59;5090679;28;20031;-68
2023/09/07 01:55:27;;;;;;;0.00;0.00;;;;;;;26.84;51.75;102053.34;5073471;28;20040;-67
2023/09/07 01:57:52;;;;;;;0.00;0.00;;;;;;;26.89;51.58;102059.59;5069574;28;20029;-67
2023/09/07 02:00:18;;;;;;;0.00;0.00;;;;;;;26.81;52.12;102067.78;5069879;28;20036;-67
2023/09/07 02:02:43;;;;;;;0.00;0.00;;;;;;;26.78;51.46;102071.94;5069911;28;20086;-67
2023/09/07 02:05:09;;;;;;;0.00;0.00;;;;;;;26.81;51.98;102065.00;5070275;28;20033;-67
2023/09/07 02:07:34;;;;;;;0.00;0.00;;;;;;;26.79;52.08;102062.53;5069883;28;20041;-67
2023/09/07 02:10:03;;;;;;;0.00;0.00;;;;;;;26.74;51.80;102070.91;5069741;28;20033;-68
2023/09/07 02:12:28;;;;;;;0.00;0.00;;;;;;;26.59;52.23;102068.41;5069561;28;20032;-67
2023/09/07 02:14:53;;;;;;;0.00;0.00;;;;;;;26.56;52.10;102068.16;5069702;28;20609;-68
2023/09/07 02:17:19;;;;;;;0.00;0.00;;;;;;;26.73;51.57;102061.00;5069869;28;20024;-67
2023/09/07 02:19:44;;;;;;;0.00;0.00;;;;;;;26.64;51.97;102062.78;5070133;28;20492;-68
2023/09/07 02:22:10;;;;;;;0.00;0.00;;;;;;;26.65;51.99;102063.63;5069717;28;20040;-67
2023/09/07 02:24:35;;;;;;;0.00;0.00;;;;;;;26.53;51.90;102055.81;5069688;28;20037;-68
2023/09/07 02:27:01;;;;;;;0.00;0.00;;;;;;;26.51;52.26;102055.31;5069550;28;20025;-68
2023/09/07 02:29:26;;;;;;;0.00;0.00;;;;;;;26.51;52.20;102049.78;5069244;28;20039;-68
2023/09/07 02:31:52;;;;;;;0.00;0.00;;;;;;;26.56;52.11;102062.66;5070036;28;20024;-68
2023/09/07 02:34:17;;;;;;;0.00;0.00;;;;;;;26.50;51.89;102052.84;5069626;28;20524;-68
2023/09/07 02:36:43;;;;;;;0.00;0.00;;;;;;;26.30;52.15;102056.75;5069565;28;20040;-67
2023/09/07 02:39:08;;;;;;;0.00;0.00;;;;;;;26.33;52.01;102056.16;5069755;28;20397;-69
2023/09/07 02:41:33;;;;;;;0.00;0.00;;;;;;;26.38;52.52;102050.56;5074439;28;20063;-67
2023/09/07 02:43:59;;;;;;;0.00;0.00;;;;;;;26.23;52.84;102052.75;5084121;28;20027;-68
2023/09/07 02:46:25;;;;;;;0.00;0.00;;;;;;;26.25;52.71;102050.50;5069620;28;20098;-68
2023/09/07 02:48:50;;;;;;;0.00;0.00;;;;;;;26.20;52.71;102053.38;5069224;28;20086;-68
2023/09/07 02:51:15;;;;;;;0.00;0.00;;;;;;;26.18;52.25;102053.63;5068803;28;20091;-68
2023/09/07 02:53:41;;;;;;;0.00;0.00;;;;;;;26.12;52.35;102052.13;5069455;28;20028;-67
2023/09/07 02:56:07;;;;;;;0.00;0.00;;;;;;;26.07;52.47;102058.50;5069872;28;20020;-67
2023/09/07 02:58:33;;;;;;;0.00;0.00;;;;;;;26.20;52.20;102051.41;5068960;28;20029;-69
2023/09/07 03:00:58;;;;;;;0.00;0.00;;;;;;;26.23;52.46;102053.56;5069131;28;20052;-69
2023/09/07 03:03:24;;;;;;;0.00;0.00;;;;;;;26.01;52.87;102056.09;5069218;28;20029;-68
2023/09/07 03:05:49;;;;;;;0.00;0.00;;;;;;;26.12;52.65;102052.13;5069277;28;20052;-68
2023/09/07 03:08:15;;;;;;;0.08;0.08;;;;;;;26.07;52.96;102050.25;5070817;28;20035;-68
2023/09/07 03:10:40;;;;;;;0.00;0.00;;;;;;;25.98;53.06;102051.19;5073342;28;20020;-68
2023/09/07 03:13:07;;;;;;;0.00;0.00;;;;;;;25.91;52.89;102054.31;5072686;28;20083;-67
2023/09/07 03:15:32;;;;;;;0.00;0.00;;;;;;;25.99;52.76;102056.41;5054705;28;20036;-68
2023/09/07 03:17:58;;;;;;;0.00;0.00;;;;;;;25.97;52.99;102053.13;5072675;28;20392;-69
2023/09/07 03:20:23;;;;;;;0.00;0.00;;;;;;;26.14;52.60;102046.28;5072581;28;20059;-67
2023/09/07 03:22:49;;;;;;;0.00;0.00;;;;;;;26.03;52.40;102046.41;5073152;28;20067;-68
2023/09/07 03:25:14;;;;;;;0.10;0.10;;;;;;;25.87;53.17;102050.50;5072340;28;20041;-68
2023/09/07 03:27:40;;;;;;;0.00;0.00;;;;;;;25.98;52.72;102060.25;5072362;28;20515;-68
2023/09/07 03:30:07;;;;;;;0.00;0.00;;;;;;;25.86;53.00;102059.09;5072095;28;20025;-67
2023/09/07 03:32:33;;;;;;;0.00;0.00;;;;;;;25.84;52.75;102053.88;5072337;28;20111;-68
2023/09/07 03:35:03;;;;;;;0.00;0.00;;;;;;;25.92;52.80;102053.22;5072731;28;20127;-68
2023/09/07 03:37:29;;;;;;;0.00;0.00;;;;;;;25.89;52.73;102059.31;5074422;28;20040;-68
2023/09/07 03:39:56;;;;;;;0.00;0.00;;;;;;;25.88;52.56;102051.34;5092370;28;20089;-68
2023/09/07 03:42:21;;;;;;;0.00;0.00;;;;;;;25.94;52.75;102056.50;5092631;28;20480;-68
2023/09/07 03:44:47;;;;;;;0.00;0.00;;;;;;;25.77;53.17;102058.09;5079857;28;20036;-67
2023/09/07 03:47:14;;;;;;;0.00;0.00;;;;;;;25.72;53.53;102055.44;5072468;28;20024;-67
2023/09/07 03:49:39;;;;;;;0.00;0.00;;;;;;;25.71;53.27;102060.09;5051778;28;20643;-67
2023/09/07 03:52:05;;;;;;;0.08;0.08;;;;;;;25.61;53.43;102059.44;5067338;28;20036;-67
2023/09/07 03:54:31;;;;;;;0.03;0.03;;;;;;;25.56;53.42;102060.31;5071897;28;20040;-67
2023/09/07 03:56:57;;;;;;;0.00;0.00;;;;;;;25.62;52.93;102063.81;5072105;28;20480;-67
2023/09/07 03:59:22;;;;;;;0.00;0.00;;;;;;;25.61;52.98;102064.97;5071607;28;20036;-67
2023/09/07 04:01:48;;;;;;;0.00;0.00;;;;;;;25.61;52.98;102064.97;5062787;28;20027;-68
2023/09/07 04:04:13;;;;;;;0.00;0.00;;;;;;;25.51;53.29;102054.06;5051432;28;20561;-68
2023/09/07 04:06:38;;;;;;;0.00;0.00;;;;;;;25.56;53.29;102056.75;5054959;28;20048;-68
2023/09/07 04:09:04;;;;;;;0.00;0.00;;;;;;;25.45;53.39;102055.25;5070733;28;20515;-68
2023/09/07 04:11:30;;;;;;;0.03;0.03;;;;;;;25.53;53.54;102058.19;5057038;28;20025;-69
2023/09/07 04:13:55;;;;;;;0.05;0.05;;;;;;;25.61;53.51;102068.50;5071417;28;20427;-68
2023/09/07 04:16:20;;;;;;;0.00;0.00;;;;;;;25.65;52.58;102071.50;5071207;28;20036;-69
2023/09/07 04:18:46;;;;;;;0.00;0.00;;;;;;;25.38;53.52;102063.81;5071100;28;20469;-68
2023/09/07 04:21:11;;;;;;;0.00;0.00;;;;;;;25.49;52.98;102067.31;5063396;28;20041;-68
2023/09/07 04:23:38;;;;;;;0.05;0.05;;;;;;;25.50;53.14;102064.25;5051463;28;20511;-67
2023/09/07 04:26:13;;;;;;;0.00;0.00;;;;;;;25.58;53.07;102069.13;5051997;28;20100;-67
2023/09/07 04:28:38;;;;;;;0.00;0.00;;;;;;;25.47;53.08;102058.53;5051128;28;20041;-68
2023/09/07 04:31:05;;;;;;;0.00;0.00;;;;;;;25.47;53.12;102061.28;5051293;28;20091;-68
2023/09/07 04:33:31;;;;;;;0.03;0.03;;;;;;;25.50;52.92;102064.25;5051451;28;20476;-69
2023/09/07 04:35:57;;;;;;;0.00;0.00;;;;;;;25.43;53.03;102058.31;5076911;28;20093;-67
2023/09/07 04:38:22;;;;;;;0.00;0.00;;;;;;;25.49;53.22;102068.13;5091010;28;20024;-69
2023/09/07 04:40:47;;;;;;;0.10;0.10;;;;;;;25.41;53.21;102057.78;5090658;28;20069;-68
2023/09/07 04:43:14;;;;;;;0.00;0.00;;;;;;;25.41;53.20;102062.47;5083069;28;20127;-68
2023/09/07 04:45:46;;;;;;;0.10;0.10;;;;;;;25.51;53.18;102059.59;5070728;28;20037;-69
2023/09/07 04:48:11;;;;;;;0.00;0.00;;;;;;;25.30;53.10;102063.69;5052077;28;20482;-69
2023/09/07 04:50:37;;;;;;;0.00;0.00;;;;;;;25.31;52.98;102065.31;5070017;28;20032;-68
2023/09/07 04:53:03;;;;;;;0.00;0.00;;;;;;;25.26;53.23;102060.66;5070862;28;20013;-68
2023/09/07 04:55:28;;;;;;;0.10;0.10;;;;;;;25.23;53.39;102070.34;5069698;28;20047;-68
2023/09/07 04:57:54;;;;;;;0.10;0.10;;;;;;;25.23;53.33;102070.34;5070020;28;20420;-68
2023/09/07 05:00:19;;;;;;;0.00;0.00;;;;;;;25.23;53.16;102078.59;5069877;28;20524;-68
2023/09/07 05:02:45;;;;;;;0.03;0.03;;;;;;;25.22;53.38;102079.72;5070254;28;20040;-68
2023/09/07 05:05:11;;;;;;;0.00;0.00;;;;;;;25.31;53.10;102085.41;5070717;28;20027;-68
2023/09/07 05:07:37;;;;;;;0.00;0.00;;;;;;;25.18;53.23;102080.56;5070185;28;20024;-68
2023/09/07 05:10:02;;;;;;;0.00;0.00;;;;;;;25.21;53.25;102086.34;5069330;28;20028;-68
2023/09/07 05:12:28;;;;;;;0.10;0.10;;;;;;;25.28;53.01;102088.72;5069068;28;20056;-66
2023/09/07 05:14:53;;;;;;;0.00;0.00;;;;;;;25.17;53.44;102082.53;5069578;28;20056;-68
2023/09/07 05:17:19;;;;;;;0.03;0.03;;;;;;;25.15;53.40;102090.25;5051500;28;20039;-67
2023/09/07 05:19:44;;;;;;;0.00;0.00;;;;;;;25.14;53.43;102087.78;5068479;28;20029;-69
2023/09/07 05:22:11;;;;;;;0.10;0.10;;;;;;;25.17;53.70;102081.69;5069589;28;20047;-68
2023/09/07 05:24:38;;;;;;;0.00;0.00;;;;;;;25.22;53.78;102087.97;5075096;28;20086;-68
2023/09/07 05:27:03;;;;;;;0.00;0.00;;;;;;;25.07;53.87;102087.31;5059375;28;20115;-68
2023/09/07 05:29:29;;;;;;;0.00;0.00;;;;;;;25.24;53.85;102082.16;5077587;28;20122;-68
2023/09/07 05:31:54;;;;;;;0.03;0.03;;;;;;;25.20;53.54;102089.34;5080414;28;20054;-68
2023/09/07 05:34:20;;;;;;;0.10;0.10;;;;;;;25.24;53.30;102085.75;5076880;28;20032;-68
2023/09/07 05:36:45;;;;;;;0.00;0.00;;;;;;;25.21;53.83;102094.59;5059786;28;20189;-67
2023/09/07 05:39:10;;;;;;;0.10;0.10;;;;;;;25.27;53.21;102095.34;5077607;28;20412;-68
2023/09/07 05:41:36;;;;;;;0.00;0.00;;;;;;;25.28;53.36;102094.22;5069493;28;20037;-67
2023/09/07 05:44:02;;;;;;;0.00;0.00;;;;;;;25.36;53.36;102095.50;5060227;28;20040;-68
2023/09/07 05:46:27;;;;;;;0.00;0.00;;;;;;;25.45;53.11;102096.53;5070416;28;20036;-68
2023/09/07 05:48:53;;;;;;;0.00;0.00;;;;;;;25.44;53.61;102097.63;5080579;28;20107;-69
2023/09/07 05:51:19;;;;;;;0.00;0.00;;;;;;;25.39;53.31;102100.44;5071506;28;20045;-68
2023/09/07 05:53:45;;;;;;;0.00;0.00;;;;;;;25.43;53.25;102104.28;5069403;28;20843;-68
2023/09/07 05:56:10;;;;;;;0.10;0.10;;;;;;;25.55;52.75;102096.41;5069707;28;20032;-68
2023/09/07 05:58:35;;;;;;;0.00;0.00;;;;;;;25.62;53.10;102100.44;5075508;28;20044;-68
2023/09/07 06:01:01;;;;;;;0.10;0.10;;;;;;;25.73;52.80;102104.69;5089667;28;20034;-68
2023/09/07 06:03:26;;;;;;;0.00;0.00;;;;;;;25.88;53.00;102112.78;5089577;28;20121;-69
2023/09/07 06:05:52;;;;;;;0.00;0.00;;;;;;;25.80;52.78;102115.34;5089209;28;20047;-68
2023/09/07 06:08:17;;;;;;;0.10;0.10;;;;;;;25.82;53.18;102113.13;5089806;28;20028;-68
2023/09/07 06:10:42;;;;;;;0.00;0.00;;;;;;;25.98;52.54;102114.56;5090377;28;20422;-69
2023/09/07 06:13:08;;;;;;;0.10;0.10;;;;;;;26.05;52.70;102110.31;5088749;28;20597;-68
2023/09/07 06:15:34;;;;;;;0.00;0.00;;;;;;;26.05;53.05;102113.06;5068574;28;20037;-67
2023/09/07 06:17:59;;;;;;;0.00;0.00;;;;;;;26.19;52.47;102110.41;5064369;28;20040;-69
2023/09/07 06:20:25;;;;;;;0.00;0.00;;;;;;;26.26;52.51;102110.03;5058209;28;20016;-69
2023/09/07 06:22:50;;;;;;;0.00;0.00;;;;;;;26.11;53.23;102113.84;5069981;28;20036;-67
2023/09/07 06:25:16;;;;;;;0.00;0.00;;;;;;;26.27;52.86;102125.44;5069880;28;20044;-69
2023/09/07 06:27:41;;;;;;;0.00;0.00;;;;;;;26.46;52.09;102121.56;5083711;28;20048;-68
2023/09/07 06:30:07;;;;;;;0.00;0.00;;;;;;;26.42;52.89;102122.44;5089344;28;20036;-69
2023/09/07 06:32:32;;;;;;;0.00;0.00;;;;;;;26.70;51.96;102127.81;5089635;28;20107;-69
2023/09/07 06:34:58;;;;;;;0.00;0.00;;;;;;;26.84;51.46;102120.41;5088043;28;20469;-69
2023/09/07 06:37:24;;;;;;;0.00;0.00;;;;;;;26.84;50.96;102128.66;5051112;28;20043;-68
2023/09/07 06:39:50;;;;;;;0.00;0.00;;;;;;;27.01;50.98;102124.53;5069094;28;20033;-69
2023/09/07 06:42:15;;;;;;;0.00;0.00;;;;;;;27.06;50.76;102124.41;5071074;28;20033;-70
2023/09/07 06:44:41;;;;;;;0.00;0.00;;;;;;;27.13;50.86;102128.41;5084080;28;20032;-69
2023/09/07 06:47:07;;;;;;;0.00;0.00;;;;;;;26.93;51.14;102131.53;5093834;28;20459;-68
2023/09/07 06:49:32;;;;;;;0.00;0.00;;;;;;;27.00;50.46;102131.97;5093076;28;20048;-69
2023/09/07 06:51:57;;;;;;;0.00;0.00;;;;;;;27.37;49.77;102134.59;5093436;28;20040;-69
2023/09/07 06:54:23;;;;;;;0.00;0.00;;;;;;;27.29;50.50;102135.28;5093145;28;20043;-68
2023/09/07 06:56:48;;;;;;;0.00;0.00;;;;;;;27.08;51.06;102135.97;5093385;28;20036;-69
2023/09/07 06:59:14;;;;;;;0.00;0.00;;;;;;;27.48;50.06;102124.97;5093362;28;20047;-68
2023/09/07 07:01:40;;;;;;;0.00;0.00;;;;;;;27.37;50.57;102133.78;5093289;28;20105;-69
2023/09/07 07:04:06;;;;;;;0.00;0.00;;;;;;;27.44;49.99;102125.91;5093103;28;20028;-68
2023/09/07 07:06:31;;;;;;;0.00;0.00;;;;;;;27.47;50.22;102134.41;5093007;28;20407;-69
2023/09/07 07:08:57;;;;;;;0.00;0.00;;;;;;;27.81;48.88;102129.22;5093113;28;20036;-68
2023/09/07 07:11:22;;;;;;;0.00;0.00;;;;;;;27.69;48.93;102134.47;5093261;28;20024;-68
2023/09/07 07:13:47;;;;;;;0.00;0.00;;;;;;;27.99;48.82;102130.25;5093461;28;20481;-68
2023/09/07 07:16:13;;;;;;;0.00;0.00;;;;;;;28.27;48.34;102137.34;5082062;28;20040;-69
2023/09/07 07:18:39;;;;;;;0.00;0.00;;;;;;;28.24;48.08;102138.00;5072443;28;20036;-68
2023/09/07 07:21:05;;;;;;;0.00;0.00;;;;;;;28.30;48.10;102141.44;5072405;28;20024;-69
2023/09/07 07:23:30;;;;;;;0.00;0.00;;;;;;;28.33;47.95;102138.03;5083094;28;20059;-68
2023/09/07 07:25:56;;;;;;;0.00;0.00;;;;;;;28.29;48.05;102143.38;5092940;28;20023;-68
2023/09/07 07:28:21;;;;;;;0.00;0.00;;;;;;;28.17;48.63;102145.88;5092549;28;20036;-67
2023/09/07 07:30:48;;;;;;;0.00;0.00;;;;;;;28.51;48.00;102137.88;5092330;28;20051;-69
2023/09/07 07:33:13;;;;;;;0.00;0.00;;;;;;;28.73;46.93;102136.25;5055707;28;20029;-69
2023/09/07 07:35:39;;;;;;;0.00;0.00;;;;;;;28.97;46.23;102139.50;5072170;28;20037;-68
2023/09/07 07:38:06;;;;;;;0.00;0.00;;;;;;;29.01;46.46;102143.28;5072536;28;20035;-68
2023/09/07 07:40:31;;;;;;;0.00;0.00;;;;;;;28.64;47.97;102138.94;5072130;28;20064;-68
2023/09/07 07:42:57;;;;;;;0.00;0.00;;;;;;;28.99;46.45;102140.00;5072142;28;20056;-68
2023/09/07 07:45:22;;;;;;;0.00;0.00;;;;;;;29.29;46.28;102140.00;5088979;28;20028;-69
2023/09/07 07:47:51;;;;;;;0.00;0.00;;;;;;;28.89;46.90;102143.03;5092307;28;20111;-68
2023/09/07 07:50:17;;;;;;;0.00;0.00;;;;;;;29.19;46.29;102136.69;5092082;28;20047;-68
2023/09/07 07:52:44;;;;;;;0.00;0.00;;;;;;;29.08;46.17;102135.31;5092332;28;20035;-69
2023/09/07 07:55:10;;;;;;;0.00;0.00;;;;;;;29.52;45.30;102129.69;5091684;28;20116;-69
2023/09/07 07:57:35;;;;;;;0.00;0.00;;;;;;;29.40;45.81;102141.34;5092074;28;20048;-68
2023/09/07 08:00:03;;;;;;;0.00;0.00;;;;;;;29.19;46.69;102129.22;5091788;28;20058;-68
2023/09/07 08:02:28;;;;;;;0.00;0.00;;;;;;;29.40;46.07;102135.00;5091836;28;20126;-68
2023/09/07 08:04:54;;;;;;;0.00;0.00;;;;;;;29.50;45.52;102140.28;5092316;28;20016;-69
2023/09/07 08:07:19;;;;;;;0.00;0.00;;;;;;;29.39;45.55;102145.28;5073417;28;20036;-69
2023/09/07 08:09:44;;;;;;;0.00;0.00;;;;;;;29.91;44.46;102132.41;5091733;28;20369;-69
2023/09/07 08:12:10;;;;;;;0.00;0.00;;;;;;;29.94;44.63;102137.28;5088781;28;20038;-69
2023/09/07 08:14:35;;;;;;;0.00;0.00;;;;;;;30.01;43.97;102122.97;5071547;28;20078;-69
2023/09/07 08:17:01;;;;;;;0.00;0.00;;;;;;;29.81;44.89;102129.94;5053495;28;20037;-68
2023/09/07 08:19:27;;;;;;;0.00;0.00;;;;;;;29.75;45.27;102119.31;5071399;28;20481;-69
2023/09/07 08:21:53;;;;;;;0.00;0.00;;;;;;;30.04;44.42;102119.53;5071589;28;20041;-69
2023/09/07 08:24:19;;;;;;;0.00;0.00;;;;;;;30.52;43.69;102120.22;5071590;28;20047;-68
2023/09/07 08:26:44;;;;;;;0.00;0.00;;;;;;;30.48;43.41;102116.47;5071128;28;20029;-69
2023/09/07 08:29:10;;;;;;;0.00;0.00;;;;;;;30.85;42.39;102112.16;5071391;28;20028;-69
2023/09/07 08:31:38;;;;;;;0.00;0.00;;;;;;;30.40;43.32;102116.47;5070968;28;20037;-69
2023/09/07 08:34:06;;;;;;;0.00;0.00;;;;;;;30.46;43.44;102115.16;5071207;28;20051;-69
2023/09/07 08:36:33;;;;;;;0.00;0.00;;;;;;;30.30;44.04;102117.63;5070984;28;20048;-68
2023/09/07 08:39:05;;;;;;;0.00;0.00;;;;;;;30.67;43.17;102116.09;5070980;28;20109;-69
2023/09/07 08:41:31;;;;;;;0.00;0.00;;;;;;;31.13;42.47;102116.16;5052900;28;20024;-69
2023/09/07 08:43:57;;;;;;;0.00;0.00;;;;;;;31.15;41.90;102111.88;5076377;28;20497;-68
2023/09/07 08:46:23;;;;;;;0.00;0.00;;;;;;;31.26;42.28;102104.00;5091223;28;20047;-68
2023/09/07 08:48:51;;;;;;;0.00;0.00;;;;;;;30.82;44.00;102113.59;5091068;28;20036;-68
2023/09/07 08:51:18;;;;;;;0.00;0.00;;;;;;;31.03;43.41;102105.41;5090995;28;20504;-68
2023/09/07 08:53:46;;;;;;;0.00;0.00;;;;;;;31.45;42.69;102115.53;5091026;28;20042;-68
2023/09/07 08:56:12;;;;;;;0.00;0.00;;;;;;;31.25;42.76;102101.56;5091346;28;20034;-68
2023/09/07 08:58:38;;;;;;;0.00;0.00;;;;;;;31.97;40.62;102107.72;5090576;28;20689;-68
2023/09/07 09:01:03;;;;;;;0.00;0.00;;;;;;;32.03;41.33;102108.31;5071847;28;20071;-69
2023/09/07 09:03:30;;;;;;;0.00;0.00;;;;;;;31.93;41.23;102107.59;5090638;28;20434;-69
2023/09/07 09:05:56;;;;;;;0.00;0.00;;;;;;;32.12;41.10;102101.53;5089574;28;20119;-69
2023/09/07 09:08:24;;;;;;;0.00;0.00;;;;;;;32.59;39.75;102107.69;5088417;28;20020;-68
2023/09/07 09:10:58;;;;;;;0.00;0.00;;;;;;;32.47;40.39;102099.28;5070687;28;20089;-68
2023/09/07 09:13:33;;;;;;;0.00;0.00;;;;;;;32.15;41.29;102094.47;5070192;28;20040;-69
2023/09/07 09:16:00;;;;;;;0.00;0.00;;;;;;;32.51;40.06;102095.47;5072147;28;20154;-69
2023/09/07 09:18:27;;;;;;;0.00;0.00;;;;;;;32.10;41.10;102097.47;5070280;28;20423;-68
2023/09/07 09:20:53;;;;;;;0.00;0.00;;;;;;;32.32;40.24;102094.31;5070441;28;20396;-69
2023/09/07 09:23:18;;;;;;;0.00;0.00;;;;;;;32.39;40.53;102089.03;5035682;28;20033;-69
2023/09/07 09:25:43;;;;;;;0.00;0.00;;;;;;;33.20;38.68;102103.06;5065708;28;20106;-69
2023/09/07 09:28:10;;;;;;;0.00;0.00;;;;;;;33.05;38.07;102092.59;5058537;28;20037;-68
2023/09/07 09:30:36;;;;;;;0.00;0.00;;;;;;;33.11;39.18;102091.22;5061502;28;20561;-68
2023/09/07 09:33:02;;;;;;;0.00;0.00;;;;;;;33.28;39.37;102094.59;5063580;28;20024;-69
2023/09/07 09:35:29;;;;;;;0.00;0.00;;;;;;;32.69;39.09;102090.53;5069053;28;20480;-69
2023/09/07 09:37:55;;;;;;;0.00;0.00;;;;;;;33.20;38.02;102091.94;5070314;28;20051;-68
2023/09/07 09:40:20;;;;;;;0.00;0.00;;;;;;;33.80;37.26;102088.28;5055430;28;20544;-69
2023/09/07 09:42:46;;;;;;;0.00;0.00;;;;;;;33.34;37.19;102090.41;5069767;28;20035;-68
2023/09/07 09:45:13;;;;;;;0.00;0.00;;;;;;;33.41;37.90;102085.06;5082845;28;20039;-69
2023/09/07 09:47:40;;;;;;;0.00;0.00;;;;;;;33.60;37.09;102085.31;5069570;28;20028;-69
2023/09/07 09:50:08;;;;;;;0.00;0.00;;;;;;;33.27;37.62;102075.44;5069135;28;20045;-67
2023/09/07 09:52:36;;;;;;;0.00;0.00;;;;;;;34.13;36.70;102075.78;5069440;28;20051;-67
2023/09/07 09:55:12;;;;;;;0.00;0.00;;;;;;;33.04;37.28;102071.47;5069239;28;20423;-67
2023/09/07 09:57:38;;;;;;;0.00;0.00;;;;;;;33.43;37.45;102066.03;5055303;28;20780;-69
2023/09/07 10:00:29;;;;;;;0.00;0.00;;;;;;;34.23;36.60;102078.06;5069167;28;20041;-68
2023/09/07 10:03:05;;;;;;;0.00;0.00;;;;;;;34.35;35.93;102071.63;5068897;28;20499;-69
2023/09/07 10:05:31;;;;;;;0.00;0.00;;;;;;;33.76;36.99;102071.44;5068590;28;20075;-69
2023/09/07 10:08:05;;;;;;;0.00;0.00;;;;;;;34.44;35.52;102069.47;5069666;28;20056;-68
2023/09/07 10:10:34;;;;;;;0.00;0.00;;;;;;;34.09;36.57;102077.66;5069143;28;20036;-68
2023/09/07 10:13:00;;;;;;;0.00;0.00;;;;;;;34.46;36.14;102070.72;5084100;28;20591;-69
2023/09/07 10:15:27;;;;;;;0.00;0.00;;;;;;;34.13;37.41;102070.19;5068955;28;20065;-69
2023/09/07 10:18:14;;;;;;;0.00;0.00;;;;;;;34.74;35.47;102065.13;5072165;28;20037;-68
2023/09/07 10:20:58;;;;;;;0.00;0.00;;;;;;;34.46;36.24;102061.53;5072401;28;20040;-69
2023/09/07 10:23:38;;;;;;;0.00;0.00;;;;;;;34.85;34.96;102066.22;5071241;28;20029;-68
2023/09/07 10:26:05;;;;;;;0.00;0.00;;;;;;;34.54;35.40;102057.00;5073510;28;20028;-68
2023/09/07 10:28:31;;;;;;;0.00;0.00;;;;;;;34.42;36.00;102055.03;5072784;28;20062;-69
2023/09/07 10:31:12;;;;;;;0.00;0.00;;;;;;;34.75;35.60;102060.38;5059683;28;20477;-68
2023/09/07 10:33:38;;;;;;;0.00;0.00;;;;;;;35.15;33.68;102055.41;5059632;28;20076;-69
2023/09/07 10:36:04;;;;;;;0.00;0.00;;;;;;;35.22;34.48;102053.59;5073278;28;20081;-68
2023/09/07 10:38:32;;;;;;;0.00;0.00;;;;;;;35.21;34.21;102049.19;5072522;28;20031;-69
2023/09/07 10:40:59;;;;;;;0.00;0.00;;;;;;;36.06;32.95;102053.94;5073385;28;20023;-68
2023/09/07 10:43:32;;;;;;;0.00;0.00;;;;;;;36.31;32.30;102049.63;5073172;28;20044;-68
2023/09/07 10:45:59;;;;;;;0.00;0.00;;;;;;;36.12;31.87;102044.88;5082203;28;20044;-68
2023/09/07 10:48:26;;;;;;;0.00;0.00;;;;;;;35.45;33.93;102045.38;5072201;28;20072;-68
2023/09/07 10:50:52;;;;;;;0.00;0.00;;;;;;;35.91;33.08;102043.59;5072225;28;20043;-69
2023/09/07 10:53:27;;;;;;;0.00;0.00;;;;;;;35.82;32.60;102034.59;5072542;28;20024;-68
2023/09/07 10:55:55;;;;;;;0.00;0.00;;;;;;;35.71;32.08;102031.59;5072950;28;20098;-68
2023/09/07 10:58:30;;;;;;;0.00;0.00;;;;;;;35.27;33.50;102033.75;5072137;28;20166;-69
2023/09/07 11:00:55;;;;;;;0.00;0.00;;;;;;;35.47;34.04;102037.44;5072373;28;20036;-67
2023/09/07 11:03:21;;;;;;;0.00;0.00;;;;;;;35.92;32.24;102029.28;5071945;28;20036;-68
2023/09/07 11:05:48;;;;;;;0.00;0.00;;;;;;;36.41;31.55;102026.66;5072375;28;20421;-69
2023/09/07 11:08:14;;;;;;;0.00;0.00;;;;;;;36.21;33.10;102032.66;5072733;28;20070;-68
2023/09/07 11:10:39;;;;;;;0.00;0.00;;;;;;;35.81;32.83;102019.81;5072022;28;20428;-68
2023/09/07 11:13:06;;;;;;;0.00;0.00;;;;;;;36.21;32.15;102025.03;5072285;28;20052;-67
2023/09/07 11:15:33;;;;;;;0.00;0.00;;;;;;;36.20;31.90;102015.03;5072000;28;20040;-68
2023/09/07 11:18:06;;;;;;;0.00;0.00;;;;;;;36.12;30.84;102016.06;5071466;28;20086;-67
2023/09/07 11:20:31;;;;;;;0.00;0.00;;;;;;;36.45;30.70;102010.72;5072112;28;20460;-68